createdAt,value
2023-02-17T00:01:40.913Z,6.28
2023-02-17T00:04:10.503Z,6.75
2023-02-17T00:06:39.048Z,7.47
2023-02-17T00:09:07.874Z,7.68
2023-02-17T00:11:36.404Z,6.57
2023-02-17T00:14:05.007Z,6.53
2023-02-17T00:16:33.509Z,5.75
2023-02-17T00:19:24.988Z,5.03
2023-02-17T00:21:55.841Z,4.50
2023-02-17T00:24:24.612Z,4.28
2023-02-17T00:26:55.330Z,4.13
2023-02-17T00:29:24.183Z,4.70
2023-02-17T00:31:55.875Z,4.38
2023-02-17T00:34:28.148Z,4.70
2023-02-17T00:36:57.071Z,5.40
2023-02-17T00:39:25.708Z,4.97
2023-02-17T00:41:55.003Z,4.80
2023-02-17T00:44:25.262Z,4.18
2023-02-17T00:46:54.053Z,4.68
2023-02-17T00:49:25.013Z,4.65
2023-02-17T00:51:55.410Z,4.95
2023-02-17T00:54:23.960Z,5.40
2023-02-17T00:56:52.428Z,4.95
2023-02-17T00:59:20.885Z,5.03
2023-02-17T01:01:49.367Z,5.18
2023-02-17T01:04:17.908Z,6.13
2023-02-17T01:06:48.240Z,4.88
2023-02-17T01:09:18.140Z,5.28
2023-02-17T01:11:46.707Z,4.93
2023-02-17T01:14:24.431Z,6.72
2023-02-17T01:16:54.016Z,7.88
2023-02-17T01:19:22.544Z,6.78
2023-02-17T01:21:51.050Z,6.85
2023-02-17T01:24:20.157Z,6.65
2023-02-17T01:26:48.938Z,6.03
2023-02-17T01:29:17.525Z,5.50
2023-02-17T01:31:47.519Z,5.65
2023-02-17T01:34:16.078Z,5.30
2023-02-17T01:36:44.597Z,5.90
2023-02-17T01:39:15.390Z,5.35
2023-02-17T01:41:44.228Z,5.25
2023-02-17T01:44:17.496Z,5.22
2023-02-17T01:46:48.809Z,5.88
2023-02-17T01:49:25.847Z,5.10
2023-02-17T01:51:58.577Z,5.57
2023-02-17T01:54:31.027Z,5.53
2023-02-17T01:57:02.033Z,5.20
2023-02-17T01:59:32.635Z,5.35
2023-02-17T02:02:05.976Z,5.13
2023-02-17T02:04:39.124Z,4.72
2023-02-17T02:07:13.226Z,5.35
2023-02-17T02:09:47.722Z,5.07
2023-02-17T02:12:21.074Z,4.80
2023-02-17T02:14:51.065Z,4.80
2023-02-17T02:17:33.093Z,4.78
2023-02-17T02:20:42.957Z,5.07
2023-02-17T02:23:29.645Z,5.13
2023-02-17T02:26:23.216Z,5.88
2023-02-17T02:29:08.023Z,6.43
2023-02-17T02:31:52.469Z,6.53
2023-02-17T02:34:25.103Z,7.10
2023-02-17T02:37:01.782Z,7.35
2023-02-17T02:39:35.755Z,8.18
2023-02-17T02:42:08.372Z,7.47
2023-02-17T02:44:37.149Z,7.85
2023-02-17T02:47:27.666Z,7.28
2023-02-17T02:49:58.167Z,7.75
2023-02-17T02:52:38.236Z,7.32
2023-02-17T02:55:14.974Z,5.60
2023-02-17T02:57:54.017Z,5.68
2023-02-17T03:00:31.376Z,7.30
2023-02-17T03:03:03.374Z,6.45
2023-02-17T03:05:39.967Z,7.65
2023-02-17T03:08:14.531Z,8.70
2023-02-17T03:10:49.347Z,7.60
2023-02-17T03:13:18.799Z,7.60
2023-02-17T03:15:48.686Z,8.45
2023-02-17T03:18:17.714Z,7.97
2023-02-17T03:20:53.126Z,8.93
2023-02-17T03:23:22.525Z,8.68
2023-02-17T03:25:51.203Z,8.60
2023-02-17T03:28:20.071Z,7.53
2023-02-17T03:30:49.319Z,7.70
2023-02-17T03:33:18.209Z,9.73
2023-02-17T03:35:48.178Z,9.93
2023-02-17T03:38:16.681Z,9.40
2023-02-17T03:40:45.212Z,9.10
2023-02-17T03:43:13.717Z,9.95
2023-02-17T03:45:42.292Z,10.45
2023-02-17T03:48:10.872Z,9.55
2023-02-17T03:50:40.364Z,10.35
2023-02-17T03:53:12.032Z,9.60
2023-02-17T03:55:40.762Z,11.50
2023-02-17T03:58:09.802Z,11.32
2023-02-17T04:00:38.873Z,10.43
2023-02-17T04:03:08.982Z,10.30
2023-02-17T04:05:37.841Z,10.90
2023-02-17T04:08:07.155Z,11.30
2023-02-17T04:10:37.840Z,9.95
2023-02-17T04:13:06.627Z,11.23
2023-02-17T04:15:35.445Z,10.77
2023-02-17T04:18:04.260Z,10.40
2023-02-17T04:20:32.880Z,9.77
2023-02-17T04:23:01.368Z,9.20
2023-02-17T04:25:36.257Z,10.23
2023-02-17T04:28:07.170Z,9.88
2023-02-17T04:30:36.265Z,9.85
2023-02-17T04:33:05.998Z,9.43
2023-02-17T04:35:34.928Z,9.65
2023-02-17T04:38:03.786Z,11.50
2023-02-17T04:40:32.946Z,10.07
2023-02-17T04:43:01.878Z,8.07
2023-02-17T04:45:31.920Z,8.60
2023-02-17T04:48:00.402Z,9.90
2023-02-17T04:50:29.042Z,9.85
2023-02-17T04:52:57.584Z,9.40
2023-02-17T04:55:26.097Z,7.65
2023-02-17T04:57:55.306Z,8.10
2023-02-17T05:00:24.042Z,9.27
2023-02-17T05:02:56.808Z,10.13
2023-02-17T05:05:27.746Z,11.98
2023-02-17T05:07:59.993Z,11.85
2023-02-17T05:10:28.490Z,12.82
2023-02-17T05:12:58.154Z,9.32
2023-02-17T05:15:27.021Z,7.50
2023-02-17T05:17:57.034Z,13.52
2023-02-17T05:20:25.738Z,12.48
2023-02-17T05:22:54.280Z,13.10
2023-02-17T05:25:23.229Z,11.13
2023-02-17T05:27:51.850Z,12.98
2023-02-17T05:30:21.844Z,13.95
2023-02-17T05:32:50.500Z,11.68
2023-02-17T05:35:20.819Z,11.40
2023-02-17T05:37:49.552Z,11.82
2023-02-17T05:40:19.368Z,7.22
2023-02-17T05:42:48.278Z,8.50
2023-02-17T05:45:17.003Z,9.95
2023-02-17T05:47:45.759Z,8.82
2023-02-17T05:50:16.687Z,9.20
2023-02-17T05:52:46.570Z,8.63
2023-02-17T05:55:15.648Z,8.95
2023-02-17T05:57:44.127Z,14.27
2023-02-17T06:00:15.155Z,9.98
2023-02-17T06:02:43.777Z,10.90
2023-02-17T06:05:12.422Z,11.32
2023-02-17T06:07:43.945Z,10.77
2023-02-17T06:10:14.451Z,10.70
2023-02-17T06:12:43.209Z,8.68
2023-02-17T06:15:12.153Z,8.00
2023-02-17T06:17:41.148Z,8.90
2023-02-17T06:20:12.450Z,10.05
2023-02-17T06:22:41.112Z,10.40
2023-02-17T06:25:10.205Z,8.95
2023-02-17T06:27:42.535Z,9.30
2023-02-17T06:30:13.677Z,9.05
2023-02-17T06:32:45.738Z,10.38
2023-02-17T06:35:16.050Z,11.05
2023-02-17T06:37:44.930Z,10.52
2023-02-17T06:40:14.126Z,10.90
2023-02-17T06:42:45.464Z,10.23
2023-02-17T06:45:14.095Z,10.43
2023-02-17T06:47:42.953Z,9.77
2023-02-17T06:50:16.574Z,10.88
2023-02-17T06:52:45.565Z,10.95
2023-02-17T06:55:15.304Z,8.07
2023-02-17T06:57:46.945Z,7.22
2023-02-17T07:00:18.060Z,6.95
2023-02-17T07:02:47.358Z,7.53
2023-02-17T07:05:16.884Z,7.70
2023-02-17T07:07:45.959Z,7.07
2023-02-17T07:10:16.919Z,8.63
2023-02-17T07:12:48.093Z,16.08
2023-02-17T07:15:16.809Z,9.20
2023-02-17T07:17:45.448Z,10.23
2023-02-17T07:20:16.165Z,10.32
2023-02-17T07:22:46.344Z,10.60
2023-02-17T07:25:16.789Z,10.38
2023-02-17T07:27:54.793Z,11.68
2023-02-17T07:30:28.778Z,10.43
2023-02-17T07:35:26.688Z,9.80
2023-02-17T07:37:55.323Z,10.90
2023-02-17T07:40:26.094Z,12.93
2023-02-17T07:42:57.660Z,10.20
2023-02-17T07:45:29.485Z,10.13
2023-02-17T07:48:01.206Z,9.98
2023-02-17T07:50:31.233Z,8.80
2023-02-17T07:53:00.684Z,8.88
2023-02-17T07:55:29.256Z,9.63
2023-02-17T07:58:00.015Z,10.88
2023-02-17T08:00:30.274Z,6.90
2023-02-17T08:02:59.145Z,9.52
2023-02-17T08:05:28.786Z,11.65
2023-02-17T08:08:12.319Z,11.68
2023-02-17T08:11:02.684Z,12.18
2023-02-17T08:13:31.933Z,12.75
2023-02-17T08:16:02.187Z,10.05
2023-02-17T08:18:36.263Z,9.35
2023-02-17T08:21:05.928Z,10.90
2023-02-17T08:23:35.449Z,11.10
2023-02-17T08:26:05.484Z,12.40
2023-02-17T08:28:34.594Z,10.20
2023-02-17T08:31:05.079Z,13.23
2023-02-17T08:33:33.882Z,12.25
2023-02-17T08:36:08.044Z,9.98
2023-02-17T08:38:37.052Z,9.63
2023-02-17T08:41:14.267Z,10.43
2023-02-17T08:43:44.087Z,10.73
2023-02-17T08:46:17.387Z,10.85
2023-02-17T08:48:46.204Z,10.65
2023-02-17T08:51:15.591Z,11.40
2023-02-17T08:53:45.795Z,14.50
2023-02-17T08:56:16.519Z,14.35
2023-02-17T08:58:45.346Z,14.70
2023-02-17T09:01:18.766Z,12.50
2023-02-17T09:03:48.195Z,9.35
2023-02-17T09:06:20.427Z,10.45
2023-02-17T09:08:50.655Z,23.20
2023-02-17T09:11:21.075Z,11.90
2023-02-17T09:13:49.768Z,10.85
2023-02-17T09:16:22.294Z,9.45
2023-02-17T09:18:52.979Z,10.77
2023-02-17T09:21:22.900Z,9.07
2023-02-17T09:23:54.011Z,9.82
2023-02-17T09:26:27.032Z,10.52
2023-02-17T09:28:58.174Z,10.27
2023-02-17T09:31:29.702Z,9.02
2023-02-17T09:33:58.941Z,8.50
2023-02-17T09:36:30.915Z,8.45
2023-02-17T09:39:00.310Z,8.02
2023-02-17T09:41:39.678Z,9.57
2023-02-17T09:44:15.837Z,7.95
2023-02-17T09:47:00.824Z,8.40
2023-02-17T09:49:36.713Z,7.72
2023-02-17T09:52:12.651Z,7.82
2023-02-17T09:54:51.544Z,9.35
2023-02-17T09:57:25.149Z,10.10
2023-02-17T09:59:57.281Z,8.63
2023-02-17T10:02:37.938Z,8.20
2023-02-17T10:05:11.026Z,7.53
2023-02-17T10:07:46.027Z,8.43
2023-02-17T10:10:19.803Z,8.52
2023-02-17T10:12:54.122Z,7.13
2023-02-17T10:15:29.090Z,8.75
2023-02-17T10:18:07.401Z,9.35
2023-02-17T10:20:39.621Z,9.80
2023-02-17T10:23:14.821Z,8.10
2023-02-17T10:26:05.575Z,8.25
2023-02-17T10:28:48.956Z,7.80
2023-02-17T10:31:27.861Z,7.50
2023-02-17T10:34:05.526Z,8.20
2023-02-17T10:36:45.010Z,9.23
2023-02-17T10:39:17.898Z,8.20
2023-02-17T10:41:50.536Z,8.70
2023-02-17T10:44:23.432Z,8.95
2023-02-17T10:46:54.616Z,8.98
2023-02-17T10:49:31.004Z,8.60
2023-02-17T10:52:03.292Z,8.48
2023-02-17T10:54:37.995Z,9.43
2023-02-17T10:57:13.489Z,10.98
2023-02-17T10:59:43.240Z,10.35
2023-02-17T11:02:20.110Z,9.13
2023-02-17T11:04:52.822Z,8.18
2023-02-17T11:07:27.751Z,7.78
2023-02-17T11:10:01.497Z,8.32
2023-02-17T11:15:06.776Z,9.18
2023-02-17T11:17:41.316Z,11.25
2023-02-17T11:20:44.571Z,11.10
2023-02-17T11:23:26.084Z,11.48
2023-02-17T11:26:11.773Z,11.75
2023-02-17T11:28:40.401Z,10.85
2023-02-17T11:31:25.786Z,8.18
2023-02-17T11:33:56.765Z,8.25
2023-02-17T11:36:28.583Z,8.20
2023-02-17T11:39:01.252Z,7.45
2023-02-17T11:41:41.133Z,8.95
2023-02-17T11:44:11.840Z,9.32
2023-02-17T11:46:47.971Z,10.20
2023-02-17T11:49:56.846Z,9.65
2023-02-17T11:52:40.325Z,7.65
2023-02-17T11:55:20.374Z,8.55
2023-02-17T11:58:03.482Z,9.32
2023-02-17T12:00:47.069Z,9.45
2023-02-17T12:03:43.764Z,9.38
2023-02-17T12:06:18.621Z,8.88
2023-02-17T12:09:05.062Z,9.18
2023-02-17T12:11:48.795Z,10.13
2023-02-17T12:14:35.832Z,9.98
2023-02-17T12:17:14.236Z,11.73
2023-02-17T12:19:51.889Z,10.13
2023-02-17T12:22:28.121Z,12.65
2023-02-17T12:25:24.317Z,12.13
2023-02-17T12:28:12.797Z,11.20
2023-02-17T12:30:53.800Z,10.48
2023-02-17T12:33:35.068Z,9.98
2023-02-17T12:36:10.356Z,10.57
2023-02-17T12:38:46.611Z,11.25
2023-02-17T12:41:20.678Z,11.85
2023-02-17T12:46:25.798Z,9.77
2023-02-17T12:49:01.450Z,10.07
2023-02-17T12:51:34.427Z,10.63
2023-02-17T12:54:12.607Z,11.48
2023-02-17T12:56:58.700Z,9.82
2023-02-17T12:59:35.735Z,9.75
2023-02-17T13:02:08.420Z,9.93
2023-02-17T13:04:38.344Z,10.07
2023-02-17T13:07:40.702Z,10.90
2023-02-17T13:10:19.945Z,10.27
2023-02-17T13:13:02.351Z,9.60
2023-02-17T13:15:37.318Z,9.80
2023-02-17T13:18:08.450Z,10.02
2023-02-17T13:20:58.048Z,9.88
2023-02-17T13:23:41.000Z,12.65
2023-02-17T13:26:36.353Z,10.77
2023-02-17T13:29:23.494Z,10.38
2023-02-17T13:31:59.947Z,10.50
2023-02-17T13:34:36.336Z,10.35
2023-02-17T13:37:18.772Z,11.48
2023-02-17T13:39:48.156Z,9.77
2023-02-17T13:42:36.334Z,10.63
2023-02-17T13:45:21.969Z,11.00
2023-02-17T13:47:56.072Z,9.40
2023-02-17T13:50:30.796Z,9.60
2023-02-17T13:53:02.095Z,10.45
2023-02-17T13:55:35.274Z,16.23
2023-02-17T13:58:12.920Z,12.20
2023-02-17T14:00:48.822Z,12.85
2023-02-17T14:03:24.079Z,10.40
2023-02-17T14:05:55.102Z,9.73
2023-02-17T14:08:35.654Z,11.27
2023-02-17T14:11:10.736Z,11.85
2023-02-17T14:13:41.735Z,12.57
2023-02-17T14:16:29.816Z,12.93
2023-02-17T14:19:09.654Z,11.45
2023-02-17T14:21:44.056Z,15.80
2023-02-17T14:24:30.197Z,9.52
2023-02-17T14:27:01.588Z,12.57
2023-02-17T14:29:41.803Z,11.23
2023-02-17T14:32:28.342Z,10.23
2023-02-17T14:35:08.208Z,11.23
2023-02-17T14:37:37.520Z,10.40
2023-02-17T14:40:09.834Z,8.98
2023-02-17T14:42:39.671Z,9.93
2023-02-17T14:45:09.204Z,10.75
2023-02-17T14:47:39.050Z,9.32
2023-02-17T14:50:10.127Z,11.18
2023-02-17T14:52:44.340Z,11.15
2023-02-17T14:55:20.637Z,12.02
2023-02-17T14:57:49.399Z,11.38
2023-02-17T15:00:18.433Z,11.75
2023-02-17T15:02:47.210Z,13.77
2023-02-17T15:05:17.606Z,13.90
2023-02-17T15:07:46.742Z,13.35
2023-02-17T15:10:23.366Z,13.32
2023-02-17T15:12:52.397Z,12.63
2023-02-17T15:15:21.642Z,14.23
2023-02-17T15:17:50.774Z,13.57
2023-02-17T15:20:21.183Z,12.93
2023-02-17T15:22:53.013Z,12.63
2023-02-17T15:25:23.765Z,12.30
2023-02-17T15:27:53.081Z,11.70
2023-02-17T15:30:23.041Z,12.35
2023-02-17T15:32:51.625Z,12.27
2023-02-17T15:35:24.324Z,11.85
2023-02-17T15:37:53.704Z,10.15
2023-02-17T15:40:24.938Z,11.63
2023-02-17T15:42:56.722Z,12.23
2023-02-17T15:45:26.223Z,21.73
2023-02-17T15:48:02.215Z,12.55
2023-02-17T15:50:32.729Z,11.35
2023-02-17T15:53:01.654Z,11.55
2023-02-17T15:55:30.633Z,12.02
2023-02-17T15:58:04.032Z,11.32
2023-02-17T16:00:35.264Z,10.90
2023-02-17T16:03:04.252Z,9.65
2023-02-17T16:05:34.387Z,11.18
2023-02-17T16:08:03.537Z,12.00
2023-02-17T16:10:33.649Z,11.48
2023-02-17T16:13:03.951Z,12.05
2023-02-17T16:15:34.070Z,11.85
2023-02-17T16:18:03.995Z,11.15
2023-02-17T16:20:35.180Z,13.45
2023-02-17T16:23:04.082Z,27.40
2023-02-17T16:25:32.579Z,18.60
2023-02-17T16:28:01.324Z,10.88
2023-02-17T16:30:32.707Z,11.45
2023-02-17T16:33:01.366Z,12.15
2023-02-17T16:35:32.110Z,13.32
2023-02-17T16:38:06.258Z,12.85
2023-02-17T16:40:37.920Z,11.40
2023-02-17T16:43:06.512Z,11.20
2023-02-17T16:45:35.770Z,11.90
2023-02-17T16:48:04.486Z,11.07
2023-02-17T16:50:35.289Z,12.02
2023-02-17T16:53:09.112Z,12.15
2023-02-17T16:55:38.713Z,12.45
2023-02-17T16:58:15.601Z,10.55
2023-02-17T17:00:45.025Z,10.82
2023-02-17T17:03:14.867Z,11.10
2023-02-17T17:05:43.482Z,12.20
2023-02-17T17:08:16.276Z,11.20
2023-02-17T17:10:46.268Z,11.38
2023-02-17T17:13:15.128Z,11.73
2023-02-17T17:15:46.540Z,12.00
2023-02-17T17:18:21.024Z,11.75
2023-02-17T17:20:49.880Z,11.95
2023-02-17T17:23:20.355Z,11.93
2023-02-17T17:25:49.032Z,12.65
2023-02-17T17:28:19.902Z,17.48
2023-02-17T17:30:49.424Z,27.75
2023-02-17T17:33:17.977Z,35.42
2023-02-17T17:35:46.550Z,21.52
2023-02-17T17:38:16.680Z,21.02
2023-02-17T17:40:57.165Z,17.00
2023-02-17T17:43:26.681Z,13.85
2023-02-17T17:45:56.457Z,13.02
2023-02-17T17:48:25.197Z,11.43
2023-02-17T17:50:53.677Z,12.93
2023-02-17T17:53:22.196Z,13.02
2023-02-17T17:55:53.456Z,12.82
2023-02-17T17:58:21.979Z,12.77
2023-02-17T18:00:50.455Z,12.30
2023-02-17T18:03:18.959Z,12.20
2023-02-17T18:05:48.482Z,12.05
2023-02-17T18:08:17.441Z,13.55
2023-02-17T18:10:46.204Z,14.45
2023-02-17T18:13:16.938Z,13.25
2023-02-17T18:15:45.906Z,13.50
2023-02-17T18:18:14.758Z,15.77
2023-02-17T18:20:43.292Z,14.23
2023-02-17T18:23:11.787Z,14.90
2023-02-17T18:25:40.285Z,14.43
2023-02-17T18:28:09.008Z,15.10
2023-02-17T18:30:39.116Z,14.65
2023-02-17T18:33:08.256Z,14.13
2023-02-17T18:35:38.754Z,16.00
2023-02-17T18:38:09.469Z,14.57
2023-02-17T18:40:39.559Z,14.27
2023-02-17T18:43:08.389Z,14.40
2023-02-17T18:45:38.696Z,22.15
2023-02-17T18:48:07.434Z,13.25
2023-02-17T18:50:36.035Z,13.18
2023-02-17T18:53:05.443Z,14.63
2023-02-17T18:55:34.032Z,14.43
2023-02-17T18:58:02.600Z,15.68
2023-02-17T19:00:31.470Z,14.05
2023-02-17T19:03:01.422Z,13.73
2023-02-17T19:05:30.594Z,14.40
2023-02-17T19:07:59.764Z,13.30
2023-02-17T19:10:28.205Z,13.55
2023-02-17T19:12:58.353Z,12.15
2023-02-17T19:15:26.827Z,13.65
2023-02-17T19:17:57.506Z,14.85
2023-02-17T19:20:29.266Z,14.20
2023-02-17T19:22:57.698Z,13.27
2023-02-17T19:25:26.640Z,12.55
2023-02-17T19:27:55.150Z,13.43
2023-02-17T19:30:23.786Z,13.38
2023-02-17T19:32:52.215Z,14.10
2023-02-17T19:35:21.053Z,13.10
2023-02-17T19:37:50.955Z,20.15
2023-02-17T19:40:20.873Z,16.55
2023-02-17T19:42:49.352Z,13.98
2023-02-17T19:45:18.008Z,12.93
2023-02-17T19:47:46.967Z,12.55
2023-02-17T19:50:17.509Z,13.02
2023-02-17T19:52:46.268Z,13.00
2023-02-17T19:55:16.357Z,13.23
2023-02-17T19:57:44.863Z,13.35
2023-02-17T20:00:14.307Z,13.85
2023-02-17T20:02:43.029Z,12.82
2023-02-17T20:05:12.044Z,14.55
2023-02-17T20:07:40.569Z,14.23
2023-02-17T20:10:11.237Z,13.15
2023-02-17T20:12:42.640Z,13.38
2023-02-17T20:15:11.425Z,14.45
2023-02-17T20:17:41.217Z,13.40
2023-02-17T20:20:12.396Z,13.95
2023-02-17T20:22:41.381Z,13.73
2023-02-17T20:25:10.260Z,14.25
2023-02-17T20:27:38.853Z,14.15
2023-02-17T20:30:10.103Z,14.02
2023-02-17T20:32:38.534Z,13.88
2023-02-17T20:35:08.926Z,14.65
2023-02-17T20:37:39.393Z,13.93
2023-02-17T20:40:10.977Z,13.70
2023-02-17T20:42:39.937Z,13.27
2023-02-17T20:45:10.525Z,13.32
2023-02-17T20:47:39.378Z,14.00
2023-02-17T20:50:09.339Z,13.68
2023-02-17T20:52:37.940Z,12.57
2023-02-17T20:55:09.189Z,14.13
2023-02-17T20:57:39.916Z,13.48
2023-02-17T21:00:15.332Z,12.75
2023-02-17T21:02:43.888Z,14.02
2023-02-17T21:05:13.144Z,13.07
2023-02-17T21:07:42.287Z,11.90
2023-02-17T21:10:17.297Z,13.75
2023-02-17T21:12:46.955Z,13.82
2023-02-17T21:15:17.359Z,13.90
2023-02-17T21:17:46.348Z,12.93
2023-02-17T21:20:18.076Z,12.82
2023-02-17T21:22:47.148Z,13.05
2023-02-17T21:25:15.949Z,13.98
2023-02-17T21:27:44.378Z,11.98
2023-02-17T21:30:15.060Z,13.13
2023-02-17T21:32:46.762Z,13.93
2023-02-17T21:35:15.327Z,13.40
2023-02-17T21:37:44.102Z,12.98
2023-02-17T21:40:13.265Z,12.27
2023-02-17T21:42:59.355Z,11.73
2023-02-17T21:45:27.983Z,12.23
2023-02-17T21:47:57.847Z,11.55
2023-02-17T21:50:26.338Z,13.35
2023-02-17T21:52:54.828Z,13.40
2023-02-17T21:55:23.327Z,12.48
2023-02-17T21:57:51.773Z,13.73
2023-02-17T22:00:21.558Z,14.68
2023-02-17T22:02:50.062Z,14.35
2023-02-17T22:05:20.233Z,14.57
2023-02-17T22:07:50.172Z,13.68
2023-02-17T22:10:18.838Z,14.35
2023-02-17T22:12:47.351Z,14.68
2023-02-17T22:15:16.485Z,14.98
2023-02-17T22:17:45.018Z,15.55
2023-02-17T22:20:15.308Z,15.57
2023-02-17T22:22:45.189Z,15.00
2023-02-17T22:25:14.164Z,14.13
2023-02-17T22:27:42.618Z,14.18
2023-02-17T22:30:11.855Z,15.20
2023-02-17T22:32:43.145Z,13.68
2023-02-17T22:35:11.896Z,15.23
2023-02-17T22:37:40.332Z,14.75
2023-02-17T22:40:11.660Z,16.35
2023-02-17T22:42:41.861Z,15.77
2023-02-17T22:45:10.851Z,18.35
2023-02-17T22:47:39.347Z,17.92
2023-02-17T22:50:08.327Z,15.82
2023-02-17T22:52:37.027Z,15.13
2023-02-17T22:55:06.283Z,16.60
2023-02-17T22:57:36.332Z,16.02
2023-02-17T23:00:05.644Z,17.38
2023-02-17T23:02:35.970Z,15.63
2023-02-17T23:05:04.614Z,15.73
2023-02-17T23:07:33.415Z,15.90
2023-02-17T23:10:01.857Z,17.02
2023-02-17T23:12:32.327Z,16.15
2023-02-17T23:15:02.425Z,16.75
2023-02-17T23:17:54.473Z,16.50
2023-02-17T23:20:23.060Z,17.17
2023-02-17T23:22:51.907Z,15.73
2023-02-17T23:25:20.430Z,15.88
2023-02-17T23:27:48.844Z,15.48
2023-02-17T23:30:23.252Z,15.95
2023-02-17T23:32:52.231Z,17.35
2023-02-17T23:35:20.953Z,17.02
2023-02-17T23:37:51.236Z,17.20
2023-02-17T23:40:21.163Z,16.55
2023-02-17T23:42:49.613Z,14.43
2023-02-17T23:45:19.671Z,15.90
2023-02-17T23:47:48.179Z,16.20
2023-02-17T23:50:17.144Z,16.38
2023-02-17T23:52:45.822Z,15.68
2023-02-17T23:55:14.423Z,14.93
2023-02-17T23:58:01.286Z,15.25
